Weather at Manhattan Regional Airport

Public forecast

Using degrees Fahrenheit for public forecast. Weather courtesy of forecast.io.

Current aviation weather report (METAR) for Manhattan Regional Airport

Retrieved 2020/09/27 06:52 UTC (30 minutes ago):

KMHK 270652Z AUTO VRB03KT 10SM CLR 23/17 A2974 RMK AO2 SLP057 T02280167

Aviation forecast (TAF) for Manhattan Regional Airport

Retrieved 2020/09/27 06:22 UTC (1 hour ago):

TAF KMHK 270520Z 2706/2806 21008KT P6SM FEW200 WS020/22035KT FM270700 02006KT P6SM BKN040 FM271400 03008KT P6SM BKN070 FM272300 33004KT P6SM BKN100